CheckWX is a tool to help pilots better visualize weather data.  It is not intended as a substitute for an official pre-flight weather briefing.

12:15:08 UTC

RPLL TAF
Ninoy Aquino International Airport
Manila, Philippines
TAF RPLL 261100Z 2612/2718 25008KT 9999 FEW023 BKN100 TX32/2704Z TN26/2620Z TEMPO 2612/2618 -SHRA FEW022CB SCT023 OVC090 TEMPO 2618/2624 8000 SHRA FEW022CB SCT023 OVC090

Jun-26@
12:00 UTC

Jun-26 @ 12:00 UTC

Jun-27@
18:00 UTC

Jun-27 @ 18:00 UTC

TAF RPLL 261100Z 2612/2718 25008KT 9999 FEW023 BKN100 TX32/2704Z TN26/2620Z
Wind
  • 250° at 8 KTS
Cloud Levels
  • Few at 2,300' AGL
  • Broken at 10,000' AGL

Jun-26@
12:00 UTC

Jun-26 @ 12:00 UTC

Jun-26@
18:00 UTC

Jun-26 @ 18:00 UTC

TEMPO 2612/2618 -SHRA FEW022CB SCT023 OVC090

Temporary

Temporary Changes expected for less than half the time period

Conditions
Light Rain
Cloud Levels
  • Few at 2,200' AGL
  • Scattered at 2,300' AGL
  • Overcast at 9,000' AGL

Jun-26@
18:00 UTC

Jun-26 @ 18:00 UTC

Jun-27@
00:00 UTC

Jun-27 @ 00:00 UTC

TEMPO 2618/2624 8000 SHRA FEW022CB SCT023 OVC090

Temporary

Temporary Changes expected for less than half the time period

Conditions
Rain
Cloud Levels
  • Few at 2,200' AGL
  • Scattered at 2,300' AGL
  • Overcast at 9,000' AGL